createdAt,value
2022-07-30T00:00:44.599Z,35.67
2022-07-30T00:03:11.095Z,35.20
2022-07-30T00:05:37.585Z,35.43
2022-07-30T00:08:04.267Z,35.50
2022-07-30T00:10:30.837Z,34.96
2022-07-30T00:12:57.315Z,35.08
2022-07-30T00:15:24.521Z,35.19
2022-07-30T00:17:51.109Z,35.42
2022-07-30T00:20:18.525Z,35.11
2022-07-30T00:22:45.175Z,34.82
2022-07-30T00:25:11.673Z,34.83
2022-07-30T00:27:40.125Z,35.14
2022-07-30T00:30:19.126Z,34.88
2022-07-30T00:32:45.562Z,35.36
2022-07-30T00:35:12.075Z,35.19
2022-07-30T00:37:38.530Z,35.13
2022-07-30T00:40:06.953Z,35.05
2022-07-30T00:42:40.676Z,35.29
2022-07-30T00:45:08.164Z,34.88
2022-07-30T00:47:34.666Z,34.94
2022-07-30T00:50:04.183Z,35.04
2022-07-30T00:52:34.051Z,35.05
2022-07-30T00:55:00.938Z,34.92
2022-07-30T00:57:28.498Z,34.98
2022-07-30T00:59:55.305Z,34.81
2022-07-30T01:02:22.256Z,35.20
2022-07-30T01:04:48.962Z,34.84
2022-07-30T01:07:15.564Z,35.01
2022-07-30T01:09:42.099Z,34.75
2022-07-30T01:12:19.607Z,34.91
2022-07-30T01:14:46.156Z,34.95
2022-07-30T01:17:12.602Z,35.05
2022-07-30T01:19:52.147Z,34.77
2022-07-30T01:22:24.699Z,34.87
2022-07-30T01:25:06.267Z,34.60
2022-07-30T01:27:44.224Z,34.74
2022-07-30T01:30:12.382Z,34.71
2022-07-30T01:32:44.153Z,34.79
2022-07-30T01:35:12.796Z,34.79
2022-07-30T01:37:40.273Z,34.94
2022-07-30T01:40:07.487Z,34.50
2022-07-30T01:42:36.192Z,34.78
2022-07-30T01:45:04.366Z,34.68
2022-07-30T01:47:34.323Z,34.84
2022-07-30T01:50:02.737Z,34.63
2022-07-30T01:52:32.759Z,34.44
2022-07-30T01:55:01.075Z,34.54
2022-07-30T01:57:28.352Z,34.71
2022-07-30T02:00:01.540Z,34.86
2022-07-30T02:02:28.208Z,34.63
2022-07-30T02:04:54.756Z,34.35
2022-07-30T02:07:45.927Z,34.70
2022-07-30T02:10:19.259Z,34.37
2022-07-30T02:12:53.793Z,34.65
2022-07-30T02:15:20.188Z,34.45
2022-07-30T02:18:23.876Z,34.34
2022-07-30T02:21:07.611Z,34.54
2022-07-30T02:23:44.106Z,34.73
2022-07-30T02:26:18.564Z,34.80
2022-07-30T02:28:49.619Z,34.40
2022-07-30T02:31:20.897Z,34.44
2022-07-30T02:33:50.018Z,34.42
2022-07-30T02:36:19.205Z,34.31
2022-07-30T02:38:47.285Z,34.30
2022-07-30T02:41:15.359Z,34.67
2022-07-30T02:43:42.716Z,34.75
2022-07-30T02:46:11.405Z,34.26
2022-07-30T02:48:39.974Z,34.19
2022-07-30T02:51:08.547Z,34.40
2022-07-30T02:53:37.479Z,34.52
2022-07-30T02:56:08.067Z,34.80
2022-07-30T02:58:37.853Z,34.51
2022-07-30T03:01:05.496Z,34.54
2022-07-30T03:03:32.769Z,34.33
2022-07-30T03:06:00.407Z,34.22
2022-07-30T03:08:27.971Z,34.51
2022-07-30T03:10:56.192Z,34.63
2022-07-30T03:13:23.750Z,34.58
2022-07-30T03:15:52.007Z,34.30
2022-07-30T03:18:20.323Z,34.61
2022-07-30T03:20:50.517Z,34.54
2022-07-30T03:23:19.659Z,34.28
2022-07-30T03:25:52.530Z,34.41
2022-07-30T03:28:24.087Z,34.64
2022-07-30T03:30:52.567Z,34.62
2022-07-30T03:33:20.159Z,34.66
2022-07-30T03:35:48.855Z,34.78
2022-07-30T03:38:16.126Z,34.49
2022-07-30T03:40:43.778Z,34.91
2022-07-30T03:43:18.305Z,34.70
2022-07-30T03:45:58.991Z,34.21
2022-07-30T03:48:26.172Z,34.14
2022-07-30T03:50:54.113Z,34.47
2022-07-30T03:53:24.940Z,34.04
2022-07-30T03:55:53.547Z,34.23
2022-07-30T03:58:20.305Z,34.39
2022-07-30T04:00:48.915Z,34.43
2022-07-30T04:03:29.098Z,33.82
2022-07-30T04:05:55.928Z,34.31
2022-07-30T04:08:22.915Z,33.92
2022-07-30T04:10:50.468Z,33.87
2022-07-30T04:13:17.690Z,33.85
2022-07-30T04:16:37.885Z,33.87
2022-07-30T04:18:38.657Z,34.26
2022-07-30T04:21:17.327Z,33.92
2022-07-30T04:24:03.772Z,34.53
2022-07-30T04:26:34.421Z,34.38
2022-07-30T04:29:01.857Z,34.41
2022-07-30T04:31:29.512Z,34.52
2022-07-30T04:34:02.762Z,34.26
2022-07-30T04:36:33.117Z,34.36
2022-07-30T04:39:00.763Z,34.45
2022-07-30T04:41:27.417Z,34.28
2022-07-30T04:43:53.902Z,34.32
2022-07-30T04:46:24.720Z,34.57
2022-07-30T04:48:52.005Z,34.70
2022-07-30T04:51:24.133Z,34.71
2022-07-30T04:53:52.353Z,34.51
2022-07-30T04:56:21.344Z,35.05
2022-07-30T04:58:49.047Z,35.12
2022-07-30T05:01:21.383Z,34.70
2022-07-30T05:03:50.004Z,35.13
2022-07-30T05:06:17.455Z,34.92
2022-07-30T05:08:44.703Z,35.04
2022-07-30T05:11:13.150Z,35.16
2022-07-30T05:13:46.380Z,34.96
2022-07-30T05:16:13.123Z,35.07
2022-07-30T05:18:39.739Z,35.18
2022-07-30T05:21:06.931Z,35.39
2022-07-30T05:23:33.831Z,35.06
2022-07-30T05:26:00.378Z,34.97
2022-07-30T05:28:26.848Z,35.10
2022-07-30T05:30:54.514Z,35.27
2022-07-30T05:33:40.994Z,35.19
2022-07-30T05:36:09.537Z,35.31
2022-07-30T05:38:36.114Z,35.08
2022-07-30T05:41:02.558Z,35.11
2022-07-30T05:43:29.124Z,35.21
2022-07-30T05:45:55.622Z,35.65
2022-07-30T05:48:22.131Z,35.48
2022-07-30T05:50:48.538Z,35.74
2022-07-30T05:53:15.001Z,35.36
2022-07-30T05:55:41.483Z,35.70
2022-07-30T05:58:07.912Z,35.64
2022-07-30T06:00:35.616Z,35.52
2022-07-30T06:03:02.502Z,35.53
2022-07-30T06:05:29.015Z,35.55
2022-07-30T06:07:55.468Z,35.44
2022-07-30T06:10:21.918Z,35.90
2022-07-30T06:12:48.355Z,35.81
2022-07-30T06:15:14.983Z,36.08
2022-07-30T06:17:51.066Z,35.66
2022-07-30T06:20:24.780Z,36.06
2022-07-30T06:22:51.287Z,35.67
2022-07-30T06:25:18.705Z,36.24
2022-07-30T06:27:45.330Z,36.28
2022-07-30T06:30:12.101Z,35.88
2022-07-30T06:32:38.646Z,36.04
2022-07-30T06:35:05.733Z,36.41
2022-07-30T06:38:00.782Z,36.24
2022-07-30T06:40:19.196Z,36.52
2022-07-30T06:42:45.905Z,36.61
2022-07-30T06:45:12.329Z,36.39
2022-07-30T06:47:38.795Z,36.76
2022-07-30T06:50:05.834Z,36.67
2022-07-30T06:52:32.784Z,37.17
2022-07-30T06:54:59.218Z,37.01
2022-07-30T06:57:25.658Z,37.30
2022-07-30T06:59:56.304Z,37.26
2022-07-30T07:02:23.853Z,37.38
2022-07-30T07:04:50.312Z,37.73
2022-07-30T07:07:31.461Z,37.40
2022-07-30T07:10:03.983Z,37.58
2022-07-30T07:12:30.444Z,37.55
2022-07-30T07:14:56.934Z,37.79
2022-07-30T07:17:26.188Z,37.87
2022-07-30T07:20:01.770Z,38.01
2022-07-30T07:22:29.548Z,37.80
2022-07-30T07:24:56.105Z,38.03
2022-07-30T07:27:22.737Z,38.00
2022-07-30T07:30:05.780Z,37.75
2022-07-30T07:32:34.111Z,37.88
2022-07-30T07:35:00.956Z,38.08
2022-07-30T07:37:27.604Z,38.02
2022-07-30T07:39:54.092Z,38.08
2022-07-30T07:42:20.657Z,38.22
2022-07-30T07:44:47.141Z,38.63
2022-07-30T07:47:13.699Z,38.82
2022-07-30T07:49:40.193Z,38.95
2022-07-30T07:52:07.079Z,38.86
2022-07-30T07:54:33.580Z,39.18
2022-07-30T07:57:02.461Z,39.08
2022-07-30T07:59:40.331Z,39.06
2022-07-30T08:02:08.551Z,38.74
2022-07-30T08:04:35.932Z,38.93
2022-07-30T08:07:03.238Z,38.77
2022-07-30T08:09:44.060Z,38.43
2022-07-30T08:12:12.324Z,38.69
2022-07-30T08:14:39.083Z,38.29
2022-07-30T08:17:06.152Z,38.46
2022-07-30T08:19:33.167Z,38.26
2022-07-30T08:21:59.833Z,38.75
2022-07-30T08:24:26.866Z,38.88
2022-07-30T08:26:53.400Z,39.22
2022-07-30T08:29:19.858Z,39.17
2022-07-30T08:31:46.305Z,39.58
2022-07-30T08:34:13.561Z,39.16
2022-07-30T08:36:40.232Z,38.85
2022-07-30T08:39:06.699Z,39.21
2022-07-30T08:41:33.220Z,39.06
2022-07-30T08:44:01.578Z,39.48
2022-07-30T08:46:30.888Z,39.46
2022-07-30T08:48:58.106Z,39.15
2022-07-30T08:51:25.099Z,39.21
2022-07-30T08:53:51.683Z,39.34
2022-07-30T08:56:18.482Z,39.37
2022-07-30T08:58:45.856Z,39.44
2022-07-30T09:01:12.292Z,39.09
2022-07-30T09:03:44.520Z,39.39
2022-07-30T09:06:11.743Z,39.79
2022-07-30T09:08:38.244Z,39.76
2022-07-30T09:11:04.707Z,39.72
2022-07-30T09:13:37.642Z,39.53
2022-07-30T09:16:06.173Z,40.17
2022-07-30T09:18:34.195Z,39.72
2022-07-30T09:21:02.166Z,39.67
2022-07-30T09:23:28.960Z,39.49
2022-07-30T09:25:59.896Z,39.97
2022-07-30T09:28:31.263Z,39.89
2022-07-30T09:30:58.424Z,39.73
2022-07-30T09:33:38.756Z,39.61
2022-07-30T09:36:11.632Z,39.85
2022-07-30T09:38:47.830Z,39.89
2022-07-30T09:41:36.345Z,39.58
2022-07-30T09:44:03.968Z,39.23
2022-07-30T09:46:43.435Z,39.81
2022-07-30T09:49:29.204Z,39.42
2022-07-30T09:51:57.505Z,39.33
2022-07-30T09:54:52.837Z,39.29
2022-07-30T09:57:25.850Z,39.11
2022-07-30T09:59:55.626Z,39.01
2022-07-30T10:02:32.172Z,39.17
2022-07-30T10:05:10.157Z,39.23
2022-07-30T10:07:55.819Z,39.18
2022-07-30T10:10:34.245Z,39.22
2022-07-30T10:13:04.827Z,39.25
2022-07-30T10:15:34.832Z,39.35
2022-07-30T10:18:06.184Z,38.91
2022-07-30T10:20:33.793Z,39.33
2022-07-30T10:23:09.022Z,38.75
2022-07-30T10:25:37.032Z,39.21
2022-07-30T10:28:17.770Z,38.70
2022-07-30T10:30:45.214Z,38.63
2022-07-30T10:33:34.912Z,38.80
2022-07-30T10:35:59.147Z,39.01
2022-07-30T10:38:30.362Z,38.82
2022-07-30T10:41:27.514Z,38.82
2022-07-30T10:44:35.155Z,38.63
2022-07-30T10:47:13.980Z,38.40
2022-07-30T10:49:43.134Z,38.84
2022-07-30T10:52:10.727Z,38.75
2022-07-30T10:54:39.618Z,38.66
2022-07-30T10:57:11.683Z,38.94
2022-07-30T10:59:58.564Z,38.40
2022-07-30T11:02:31.307Z,38.79
2022-07-30T11:05:43.871Z,38.90
2022-07-30T11:08:36.190Z,38.21
2022-07-30T11:11:19.722Z,38.71
2022-07-30T11:13:54.159Z,38.28
2022-07-30T11:16:48.208Z,38.66
2022-07-30T11:19:55.235Z,38.33
2022-07-30T11:22:27.181Z,38.71
2022-07-30T11:24:54.096Z,38.32
2022-07-30T11:27:36.298Z,38.18
2022-07-30T11:30:26.607Z,38.39
2022-07-30T11:32:57.514Z,38.01
2022-07-30T11:35:25.848Z,38.34
2022-07-30T11:38:22.283Z,38.05
2022-07-30T11:40:49.093Z,38.13
2022-07-30T11:43:36.025Z,38.23
2022-07-30T11:46:10.483Z,38.29
2022-07-30T11:48:38.181Z,38.84
2022-07-30T11:51:05.159Z,38.46
2022-07-30T11:53:31.935Z,38.59
2022-07-30T11:56:00.541Z,38.28
2022-07-30T11:58:28.746Z,38.43
2022-07-30T12:01:01.747Z,38.44
2022-07-30T12:03:31.755Z,38.91
2022-07-30T12:06:05.915Z,38.78
2022-07-30T12:08:42.281Z,39.21
2022-07-30T12:11:09.271Z,39.13
2022-07-30T12:13:45.158Z,39.24
2022-07-30T12:16:17.281Z,38.93
2022-07-30T12:18:45.069Z,39.33
2022-07-30T12:21:12.732Z,39.40
2022-07-30T12:23:41.878Z,39.26
2022-07-30T12:26:08.758Z,38.94
2022-07-30T12:28:36.160Z,38.97
2022-07-30T12:31:04.379Z,39.72
2022-07-30T12:33:31.780Z,39.46
2022-07-30T12:36:00.067Z,39.72
2022-07-30T12:38:28.327Z,39.32
2022-07-30T12:41:03.385Z,39.65
2022-07-30T12:43:56.202Z,39.41
2022-07-30T12:46:26.587Z,39.65
2022-07-30T12:48:54.620Z,39.96
2022-07-30T12:51:26.131Z,39.53
2022-07-30T12:53:55.359Z,39.19
2022-07-30T12:56:27.305Z,39.44
2022-07-30T12:58:55.478Z,39.35
2022-07-30T13:01:44.236Z,39.36
2022-07-30T13:04:11.991Z,39.45
2022-07-30T13:06:40.193Z,39.46
2022-07-30T13:09:07.256Z,39.18
2022-07-30T13:11:48.750Z,39.60
2022-07-30T13:14:17.071Z,39.57
2022-07-30T13:16:43.739Z,39.38
2022-07-30T13:19:11.871Z,39.78
2022-07-30T13:21:39.905Z,39.83
2022-07-30T13:24:17.995Z,39.88
2022-07-30T13:26:45.154Z,40.08
2022-07-30T13:29:13.445Z,40.04
2022-07-30T13:31:43.015Z,40.18
2022-07-30T13:34:11.234Z,39.91
2022-07-30T13:36:37.824Z,40.29
2022-07-30T13:39:04.382Z,39.77
2022-07-30T13:41:31.008Z,39.74
2022-07-30T13:43:57.596Z,40.06
2022-07-30T13:46:24.155Z,39.60
2022-07-30T13:48:50.727Z,39.54
2022-07-30T13:51:17.413Z,39.84
2022-07-30T13:53:43.853Z,39.92
2022-07-30T13:56:12.443Z,40.31
2022-07-30T13:58:39.813Z,40.18
2022-07-30T14:01:07.132Z,40.10
2022-07-30T14:03:35.237Z,40.02
2022-07-30T14:06:10.645Z,39.92
2022-07-30T14:08:38.622Z,40.00
2022-07-30T14:11:05.103Z,40.25
2022-07-30T14:13:31.759Z,40.60
2022-07-30T14:15:58.434Z,40.59
2022-07-30T14:18:24.887Z,40.31
2022-07-30T14:20:53.631Z,40.33
2022-07-30T14:23:20.344Z,40.66
2022-07-30T14:25:47.187Z,40.33
2022-07-30T14:28:14.106Z,40.36
2022-07-30T14:30:40.967Z,40.17
2022-07-30T14:33:07.539Z,40.39
2022-07-30T14:35:34.010Z,40.47
2022-07-30T14:38:00.605Z,40.53
2022-07-30T14:40:27.122Z,39.98
2022-07-30T14:42:56.152Z,40.34
2022-07-30T14:45:23.111Z,40.13
2022-07-30T14:47:49.607Z,40.52
2022-07-30T14:50:16.280Z,40.34
2022-07-30T14:52:43.752Z,40.36
2022-07-30T14:55:10.495Z,40.49
2022-07-30T14:57:37.064Z,40.83
2022-07-30T15:00:05.825Z,40.58
2022-07-30T15:02:32.311Z,40.82
2022-07-30T15:04:58.878Z,40.36
2022-07-30T15:07:25.315Z,40.15
2022-07-30T15:09:51.759Z,40.33
2022-07-30T15:12:26.747Z,40.15
2022-07-30T15:14:53.867Z,40.60
2022-07-30T15:17:20.460Z,40.80
2022-07-30T15:19:51.014Z,40.38
2022-07-30T15:22:19.949Z,40.43
2022-07-30T15:24:46.503Z,40.00
2022-07-30T15:27:13.069Z,40.24
2022-07-30T15:29:39.587Z,40.37
2022-07-30T15:32:06.774Z,40.23
2022-07-30T15:34:37.024Z,40.32
2022-07-30T15:37:05.339Z,40.12
2022-07-30T15:39:33.473Z,40.17
2022-07-30T15:42:01.842Z,40.14
2022-07-30T15:44:28.706Z,39.96
2022-07-30T15:46:55.223Z,39.74
2022-07-30T15:49:21.771Z,39.87
2022-07-30T15:51:51.906Z,39.74
2022-07-30T15:54:23.291Z,39.57
2022-07-30T15:57:01.227Z,39.89
2022-07-30T15:59:28.734Z,39.97
2022-07-30T16:01:55.213Z,39.69
2022-07-30T16:04:22.053Z,39.92
2022-07-30T16:07:00.228Z,39.87
2022-07-30T16:09:26.817Z,39.68
2022-07-30T16:11:53.643Z,39.59
2022-07-30T16:14:20.215Z,39.80
2022-07-30T16:16:46.754Z,39.61
2022-07-30T16:19:13.251Z,39.69
2022-07-30T16:21:39.793Z,39.54
2022-07-30T16:24:07.112Z,39.45
2022-07-30T16:26:35.850Z,40.00
2022-07-30T16:29:02.316Z,39.67
2022-07-30T16:31:28.878Z,39.67
2022-07-30T16:33:55.395Z,39.75
2022-07-30T16:36:21.931Z,39.59
2022-07-30T16:38:48.696Z,39.70
2022-07-30T16:41:15.169Z,39.49
2022-07-30T16:43:41.636Z,39.65
2022-07-30T16:46:08.327Z,39.20
2022-07-30T16:48:34.860Z,39.20
2022-07-30T16:51:01.676Z,39.10
2022-07-30T16:53:28.593Z,39.35
2022-07-30T16:55:56.934Z,39.21
2022-07-30T16:58:30.722Z,39.20
2022-07-30T17:00:57.372Z,39.08
2022-07-30T17:03:25.276Z,39.35
2022-07-30T17:05:53.062Z,39.11
2022-07-30T17:08:24.880Z,39.16
2022-07-30T17:10:52.998Z,39.06
2022-07-30T17:13:20.403Z,39.24
2022-07-30T17:15:47.253Z,39.12
2022-07-30T17:18:14.089Z,39.09
2022-07-30T17:20:40.858Z,39.29
2022-07-30T17:23:07.871Z,39.26
2022-07-30T17:25:34.374Z,39.15
2022-07-30T17:28:01.412Z,39.19
2022-07-30T17:30:29.408Z,38.97
2022-07-30T17:32:56.144Z,38.59
2022-07-30T17:35:24.662Z,38.75
2022-07-30T17:37:51.509Z,38.88
2022-07-30T17:40:28.416Z,38.60
2022-07-30T17:43:03.339Z,38.72
2022-07-30T17:45:30.896Z,38.66
2022-07-30T17:47:57.884Z,38.68
2022-07-30T17:50:24.379Z,38.67
2022-07-30T17:52:50.805Z,38.59
2022-07-30T17:55:17.310Z,38.70
2022-07-30T17:57:43.788Z,38.45
2022-07-30T18:00:10.811Z,38.53
2022-07-30T18:02:37.368Z,38.43
2022-07-30T18:05:04.201Z,38.34
2022-07-30T18:07:30.687Z,38.20
2022-07-30T18:09:57.163Z,38.54
2022-07-30T18:12:23.622Z,38.27
2022-07-30T18:14:50.122Z,38.43
2022-07-30T18:17:16.606Z,38.19
2022-07-30T18:19:43.087Z,38.14
2022-07-30T18:22:09.767Z,38.16
2022-07-30T18:24:40.251Z,38.02
2022-07-30T18:27:11.557Z,37.95
2022-07-30T18:29:38.088Z,37.84
2022-07-30T18:32:05.376Z,38.02
2022-07-30T18:34:32.195Z,38.00
2022-07-30T18:36:58.771Z,38.11
2022-07-30T18:39:25.398Z,38.25
2022-07-30T18:41:51.847Z,38.00
2022-07-30T18:44:18.362Z,38.14
2022-07-30T18:46:44.938Z,38.34
2022-07-30T18:49:34.285Z,38.43
2022-07-30T18:51:59.348Z,38.23
2022-07-30T18:54:25.924Z,38.35
2022-07-30T18:56:52.366Z,38.57
2022-07-30T18:59:18.799Z,38.48
2022-07-30T19:01:45.375Z,38.35
2022-07-30T19:04:11.903Z,38.20
2022-07-30T19:06:38.529Z,38.61
2022-07-30T19:09:07.571Z,38.46
2022-07-30T19:11:43.680Z,38.40
2022-07-30T19:14:10.262Z,38.70
2022-07-30T19:16:36.853Z,38.73
2022-07-30T19:19:03.482Z,39.01
2022-07-30T19:21:29.983Z,38.85
2022-07-30T19:23:56.491Z,38.93
2022-07-30T19:26:23.303Z,38.75
2022-07-30T19:28:49.776Z,38.94
2022-07-30T19:31:16.510Z,38.85
2022-07-30T19:33:43.368Z,39.13
2022-07-30T19:36:10.215Z,39.06
2022-07-30T19:38:39.828Z,39.12
2022-07-30T19:41:06.730Z,39.37
2022-07-30T19:43:34.167Z,39.21
2022-07-30T19:46:03.882Z,39.18
2022-07-30T19:48:32.539Z,39.07
2022-07-30T19:51:00.729Z,38.91
2022-07-30T19:53:31.327Z,39.02
2022-07-30T19:56:01.645Z,38.85
2022-07-30T19:58:28.435Z,38.89
2022-07-30T20:00:54.991Z,39.04
2022-07-30T20:03:26.172Z,39.01
2022-07-30T20:05:59.940Z,39.34
2022-07-30T20:08:28.062Z,39.63
2022-07-30T20:10:57.888Z,39.43
2022-07-30T20:13:44.454Z,39.49
2022-07-30T20:16:13.268Z,39.56
2022-07-30T20:18:40.716Z,39.67
2022-07-30T20:21:11.308Z,39.51
2022-07-30T20:23:41.333Z,39.53
2022-07-30T20:26:12.250Z,39.62
2022-07-30T20:28:40.110Z,39.71
2022-07-30T20:31:07.198Z,39.62
2022-07-30T20:33:36.050Z,39.78
2022-07-30T20:36:04.606Z,39.87
2022-07-30T20:38:33.698Z,39.78
2022-07-30T20:41:02.224Z,39.96
2022-07-30T20:43:28.893Z,39.75
2022-07-30T20:45:56.107Z,39.62
2022-07-30T20:48:25.338Z,40.08
2022-07-30T20:50:52.396Z,39.87
2022-07-30T20:53:19.774Z,39.69
2022-07-30T20:55:47.257Z,39.63
2022-07-30T20:58:17.468Z,39.81
2022-07-30T21:00:49.931Z,39.44
2022-07-30T21:03:21.724Z,39.52
2022-07-30T21:05:48.716Z,40.07
2022-07-30T21:08:17.889Z,39.99
2022-07-30T21:10:44.804Z,39.95
2022-07-30T21:13:12.631Z,39.78
2022-07-30T21:18:25.694Z,39.62
2022-07-30T21:20:53.163Z,39.65
2022-07-30T21:23:22.346Z,39.47
2022-07-30T21:26:01.369Z,39.94
2022-07-30T21:28:35.804Z,39.63
2022-07-30T21:31:03.859Z,39.55
2022-07-30T21:33:33.775Z,39.49
2022-07-30T21:36:01.002Z,39.39
2022-07-30T21:38:27.727Z,39.64
2022-07-30T21:40:55.198Z,39.30
2022-07-30T21:43:29.671Z,39.27
2022-07-30T21:45:57.492Z,39.45
2022-07-30T21:48:24.367Z,39.41
2022-07-30T21:50:50.908Z,39.33
2022-07-30T21:53:17.380Z,39.62
2022-07-30T21:55:56.843Z,39.40
2022-07-30T21:58:26.208Z,39.40
2022-07-30T22:00:54.982Z,39.20
2022-07-30T22:04:04.049Z,39.32
2022-07-30T22:06:12.667Z,39.16
2022-07-30T22:08:39.874Z,39.26
2022-07-30T22:11:09.084Z,38.99
2022-07-30T22:13:36.346Z,38.79
2022-07-30T22:16:21.495Z,38.76
2022-07-30T22:18:48.032Z,39.06
2022-07-30T22:21:14.659Z,39.02
2022-07-30T22:23:54.793Z,38.91
2022-07-30T22:26:29.454Z,38.96
2022-07-30T22:28:55.907Z,38.71
2022-07-30T22:31:22.433Z,38.49
2022-07-30T22:33:50.914Z,38.77
2022-07-30T22:36:17.952Z,38.56
2022-07-30T22:38:58.887Z,38.52
2022-07-30T22:41:39.140Z,38.60
2022-07-30T22:44:06.723Z,38.44
2022-07-30T22:46:39.438Z,38.36
2022-07-30T22:49:23.592Z,38.67
2022-07-30T22:52:02.101Z,38.53
2022-07-30T22:54:37.316Z,38.43
2022-07-30T22:57:04.244Z,38.22
2022-07-30T22:59:58.264Z,38.50
2022-07-30T23:02:17.970Z,38.34
2022-07-30T23:04:44.541Z,38.31
2022-07-30T23:07:13.991Z,38.65
2022-07-30T23:09:49.448Z,38.34
2022-07-30T23:12:20.107Z,38.32
2022-07-30T23:12:32.821Z,39.90
2022-07-30T23:14:47.407Z,38.21
2022-07-30T23:17:13.972Z,38.28
2022-07-30T23:19:40.420Z,38.59
2022-07-30T23:22:07.162Z,38.63
2022-07-30T23:24:33.725Z,38.56
2022-07-30T23:27:00.483Z,38.27
2022-07-30T23:29:28.443Z,38.69
2022-07-30T23:31:55.434Z,38.64
2022-07-30T23:34:22.033Z,38.57
2022-07-30T23:36:48.517Z,38.61
2022-07-30T23:39:15.008Z,38.62
2022-07-30T23:41:43.713Z,38.41
2022-07-30T23:44:10.147Z,38.48
2022-07-30T23:46:37.132Z,38.17
2022-07-30T23:49:04.585Z,38.71
2022-07-30T23:51:33.597Z,38.53
2022-07-30T23:54:01.025Z,38.58
2022-07-30T23:56:27.511Z,38.51
2022-07-30T23:58:54.623Z,38.69
